sensor_id;sensor_type;location;lat;lon;timestamp;P1;durP1;ratioP1;P2;durP2;ratioP2
15905;SDS011;8051;50.820;4.884;2023-12-20T00:00:36;18.37;;;16.57;;
15905;SDS011;8051;50.820;4.884;2023-12-20T00:03:04;23.57;;;17.50;;
15905;SDS011;8051;50.820;4.884;2023-12-20T00:05:31;18.23;;;16.67;;
15905;SDS011;8051;50.820;4.884;2023-12-20T00:08:00;18.63;;;16.73;;
15905;SDS011;8051;50.820;4.884;2023-12-20T00:10:28;17.73;;;15.90;;
15905;SDS011;8051;50.820;4.884;2023-12-20T00:12:55;19.90;;;15.77;;
15905;SDS011;8051;50.820;4.884;2023-12-20T00:15:22;19.30;;;15.97;;
15905;SDS011;8051;50.820;4.884;2023-12-20T00:17:51;29.33;;;16.57;;
15905;SDS011;8051;50.820;4.884;2023-12-20T00:20:19;18.20;;;16.13;;
15905;SDS011;8051;50.820;4.884;2023-12-20T00:22:46;18.00;;;16.10;;
15905;SDS011;8051;50.820;4.884;2023-12-20T00:25:14;23.23;;;16.03;;
15905;SDS011;8051;50.820;4.884;2023-12-20T00:27:41;23.97;;;16.67;;
15905;SDS011;8051;50.820;4.884;2023-12-20T00:30:09;26.13;;;16.20;;
15905;SDS011;8051;50.820;4.884;2023-12-20T00:32:37;27.27;;;17.07;;
15905;SDS011;8051;50.820;4.884;2023-12-20T00:35:12;21.13;;;15.73;;
15905;SDS011;8051;50.820;4.884;2023-12-20T00:37:40;21.10;;;14.97;;
15905;SDS011;8051;50.820;4.884;2023-12-20T00:40:08;18.20;;;15.23;;
15905;SDS011;8051;50.820;4.884;2023-12-20T00:42:36;17.20;;;14.37;;
15905;SDS011;8051;50.820;4.884;2023-12-20T00:45:04;16.57;;;14.87;;
15905;SDS011;8051;50.820;4.884;2023-12-20T00:47:32;16.63;;;14.73;;
15905;SDS011;8051;50.820;4.884;2023-12-20T00:50:00;16.90;;;14.50;;
15905;SDS011;8051;50.820;4.884;2023-12-20T00:52:30;16.60;;;14.93;;
15905;SDS011;8051;50.820;4.884;2023-12-20T00:54:57;22.07;;;14.97;;
15905;SDS011;8051;50.820;4.884;2023-12-20T00:57:24;22.77;;;15.20;;
15905;SDS011;8051;50.820;4.884;2023-12-20T00:59:52;18.83;;;16.00;;
15905;SDS011;8051;50.820;4.884;2023-12-20T01:02:19;23.27;;;15.80;;
15905;SDS011;8051;50.820;4.884;2023-12-20T01:04:47;17.83;;;14.43;;
15905;SDS011;8051;50.820;4.884;2023-12-20T01:07:14;19.43;;;15.83;;
15905;SDS011;8051;50.820;4.884;2023-12-20T01:09:43;20.53;;;15.13;;
15905;SDS011;8051;50.820;4.884;2023-12-20T01:12:10;16.67;;;14.97;;
15905;SDS011;8051;50.820;4.884;2023-12-20T01:14:38;19.90;;;15.27;;
15905;SDS011;8051;50.820;4.884;2023-12-20T01:17:05;17.17;;;15.13;;
15905;SDS011;8051;50.820;4.884;2023-12-20T01:19:33;18.23;;;16.03;;
15905;SDS011;8051;50.820;4.884;2023-12-20T01:22:00;17.00;;;15.20;;
15905;SDS011;8051;50.820;4.884;2023-12-20T01:24:28;18.93;;;15.97;;
15905;SDS011;8051;50.820;4.884;2023-12-20T01:26:57;17.33;;;15.60;;
15905;SDS011;8051;50.820;4.884;2023-12-20T01:29:25;15.97;;;14.33;;
15905;SDS011;8051;50.820;4.884;2023-12-20T01:31:52;18.57;;;14.97;;
15905;SDS011;8051;50.820;4.884;2023-12-20T01:34:19;17.10;;;15.40;;
15905;SDS011;8051;50.820;4.884;2023-12-20T01:36:47;19.40;;;15.30;;
15905;SDS011;8051;50.820;4.884;2023-12-20T01:39:14;17.90;;;14.70;;
15905;SDS011;8051;50.820;4.884;2023-12-20T01:41:42;19.10;;;14.53;;
15905;SDS011;8051;50.820;4.884;2023-12-20T01:44:12;17.17;;;15.27;;
15905;SDS011;8051;50.820;4.884;2023-12-20T01:46:39;20.43;;;14.13;;
15905;SDS011;8051;50.820;4.884;2023-12-20T01:49:07;22.57;;;15.00;;
15905;SDS011;8051;50.820;4.884;2023-12-20T01:51:35;17.40;;;13.73;;
15905;SDS011;8051;50.820;4.884;2023-12-20T01:54:03;14.33;;;13.13;;
15905;SDS011;8051;50.820;4.884;2023-12-20T01:56:31;18.43;;;13.73;;
15905;SDS011;8051;50.820;4.884;2023-12-20T01:58:58;16.57;;;13.40;;
15905;SDS011;8051;50.820;4.884;2023-12-20T02:01:29;22.27;;;13.23;;
15905;SDS011;8051;50.820;4.884;2023-12-20T02:03:57;19.27;;;14.37;;
15905;SDS011;8051;50.820;4.884;2023-12-20T02:06:25;19.23;;;13.23;;
15905;SDS011;8051;50.820;4.884;2023-12-20T02:08:57;23.33;;;13.23;;
15905;SDS011;8051;50.820;4.884;2023-12-20T02:11:25;23.90;;;13.20;;
15905;SDS011;8051;50.820;4.884;2023-12-20T02:13:53;18.90;;;12.03;;
15905;SDS011;8051;50.820;4.884;2023-12-20T02:16:20;13.87;;;12.00;;
15905;SDS011;8051;50.820;4.884;2023-12-20T02:18:50;17.57;;;12.63;;
15905;SDS011;8051;50.820;4.884;2023-12-20T02:21:17;18.43;;;12.87;;
15905;SDS011;8051;50.820;4.884;2023-12-20T02:23:46;19.03;;;12.23;;
15905;SDS011;8051;50.820;4.884;2023-12-20T02:26:14;18.67;;;11.57;;
15905;SDS011;8051;50.820;4.884;2023-12-20T02:28:41;14.30;;;12.43;;
15905;SDS011;8051;50.820;4.884;2023-12-20T02:31:09;17.87;;;12.17;;
15905;SDS011;8051;50.820;4.884;2023-12-20T02:33:36;15.97;;;12.33;;
15905;SDS011;8051;50.820;4.884;2023-12-20T02:36:05;24.73;;;12.30;;
15905;SDS011;8051;50.820;4.884;2023-12-20T02:38:33;16.17;;;12.30;;
15905;SDS011;8051;50.820;4.884;2023-12-20T02:41:02;18.20;;;13.23;;
15905;SDS011;8051;50.820;4.884;2023-12-20T02:43:30;14.40;;;12.63;;
15905;SDS011;8051;50.820;4.884;2023-12-20T02:45:57;19.27;;;11.83;;
15905;SDS011;8051;50.820;4.884;2023-12-20T02:48:24;18.87;;;12.60;;
15905;SDS011;8051;50.820;4.884;2023-12-20T02:50:52;29.63;;;11.70;;
15905;SDS011;8051;50.820;4.884;2023-12-20T02:53:19;23.40;;;11.63;;
15905;SDS011;8051;50.820;4.884;2023-12-20T02:55:47;17.20;;;11.47;;
15905;SDS011;8051;50.820;4.884;2023-12-20T02:58:16;27.23;;;12.10;;
15905;SDS011;8051;50.820;4.884;2023-12-20T03:00:43;23.80;;;11.73;;
15905;SDS011;8051;50.820;4.884;2023-12-20T03:03:11;19.23;;;11.70;;
15905;SDS011;8051;50.820;4.884;2023-12-20T03:05:38;18.47;;;11.73;;
15905;SDS011;8051;50.820;4.884;2023-12-20T03:08:06;18.47;;;12.10;;
15905;SDS011;8051;50.820;4.884;2023-12-20T03:10:33;22.10;;;11.97;;
15905;SDS011;8051;50.820;4.884;2023-12-20T03:13:01;14.27;;;10.97;;
15905;SDS011;8051;50.820;4.884;2023-12-20T03:15:29;21.47;;;12.53;;
15905;SDS011;8051;50.820;4.884;2023-12-20T03:17:57;25.50;;;12.00;;
15905;SDS011;8051;50.820;4.884;2023-12-20T03:20:25;23.30;;;12.57;;
15905;SDS011;8051;50.820;4.884;2023-12-20T03:22:52;17.73;;;12.10;;
15905;SDS011;8051;50.820;4.884;2023-12-20T03:25:20;21.40;;;11.97;;
15905;SDS011;8051;50.820;4.884;2023-12-20T03:27:47;17.63;;;11.63;;
15905;SDS011;8051;50.820;4.884;2023-12-20T03:30:15;22.87;;;12.97;;
15905;SDS011;8051;50.820;4.884;2023-12-20T03:32:44;14.03;;;12.07;;
15905;SDS011;8051;50.820;4.884;2023-12-20T03:35:11;24.70;;;12.40;;
15905;SDS011;8051;50.820;4.884;2023-12-20T03:37:39;26.07;;;12.83;;
15905;SDS011;8051;50.820;4.884;2023-12-20T03:40:07;17.97;;;11.77;;
15905;SDS011;8051;50.820;4.884;2023-12-20T03:42:35;22.57;;;12.47;;
15905;SDS011;8051;50.820;4.884;2023-12-20T03:45:02;23.27;;;11.73;;
15905;SDS011;8051;50.820;4.884;2023-12-20T03:47:30;22.67;;;12.80;;
15905;SDS011;8051;50.820;4.884;2023-12-20T03:49:59;21.00;;;12.77;;
15905;SDS011;8051;50.820;4.884;2023-12-20T03:52:27;23.10;;;11.47;;
15905;SDS011;8051;50.820;4.884;2023-12-20T03:54:54;16.20;;;12.90;;
15905;SDS011;8051;50.820;4.884;2023-12-20T03:57:22;23.20;;;13.00;;
15905;SDS011;8051;50.820;4.884;2023-12-20T03:59:49;25.20;;;12.87;;
15905;SDS011;8051;50.820;4.884;2023-12-20T04:02:17;25.17;;;13.43;;
15905;SDS011;8051;50.820;4.884;2023-12-20T04:04:44;15.87;;;13.90;;
15905;SDS011;8051;50.820;4.884;2023-12-20T04:07:13;21.57;;;14.03;;
15905;SDS011;8051;50.820;4.884;2023-12-20T04:09:41;28.93;;;14.70;;
15905;SDS011;8051;50.820;4.884;2023-12-20T04:12:08;22.90;;;14.20;;
15905;SDS011;8051;50.820;4.884;2023-12-20T04:14:36;22.53;;;14.27;;
15905;SDS011;8051;50.820;4.884;2023-12-20T04:17:03;29.33;;;14.37;;
15905;SDS011;8051;50.820;4.884;2023-12-20T04:19:31;21.43;;;13.87;;
15905;SDS011;8051;50.820;4.884;2023-12-20T04:21:58;30.97;;;14.87;;
15905;SDS011;8051;50.820;4.884;2023-12-20T04:24:27;31.23;;;14.50;;
15905;SDS011;8051;50.820;4.884;2023-12-20T04:26:54;19.07;;;14.90;;
15905;SDS011;8051;50.820;4.884;2023-12-20T04:29:21;24.80;;;15.27;;
15905;SDS011;8051;50.820;4.884;2023-12-20T04:31:49;29.50;;;15.97;;
15905;SDS011;8051;50.820;4.884;2023-12-20T04:34:17;18.47;;;14.30;;
15905;SDS011;8051;50.820;4.884;2023-12-20T04:36:44;22.37;;;14.40;;
15905;SDS011;8051;50.820;4.884;2023-12-20T04:39:12;23.90;;;14.70;;
15905;SDS011;8051;50.820;4.884;2023-12-20T04:41:42;29.10;;;13.70;;
15905;SDS011;8051;50.820;4.884;2023-12-20T04:44:09;28.70;;;14.70;;
15905;SDS011;8051;50.820;4.884;2023-12-20T04:46:37;25.40;;;13.77;;
15905;SDS011;8051;50.820;4.884;2023-12-20T04:49:04;28.40;;;13.97;;
15905;SDS011;8051;50.820;4.884;2023-12-20T04:51:32;22.30;;;14.00;;
15905;SDS011;8051;50.820;4.884;2023-12-20T04:54:00;20.30;;;13.43;;
15905;SDS011;8051;50.820;4.884;2023-12-20T04:56:27;19.57;;;13.10;;
15905;SDS011;8051;50.820;4.884;2023-12-20T04:58:56;19.07;;;13.47;;
15905;SDS011;8051;50.820;4.884;2023-12-20T05:01:24;24.47;;;14.07;;
15905;SDS011;8051;50.820;4.884;2023-12-20T05:03:51;21.83;;;13.23;;
15905;SDS011;8051;50.820;4.884;2023-12-20T05:06:19;25.57;;;14.07;;
15905;SDS011;8051;50.820;4.884;2023-12-20T05:08:46;23.73;;;13.63;;
15905;SDS011;8051;50.820;4.884;2023-12-20T05:11:13;25.13;;;12.87;;
15905;SDS011;8051;50.820;4.884;2023-12-20T05:13:41;18.10;;;12.43;;
15905;SDS011;8051;50.820;4.884;2023-12-20T05:16:10;23.53;;;13.00;;
15905;SDS011;8051;50.820;4.884;2023-12-20T05:18:39;21.73;;;13.90;;
15905;SDS011;8051;50.820;4.884;2023-12-20T05:21:06;16.53;;;12.77;;
15905;SDS011;8051;50.820;4.884;2023-12-20T05:23:34;24.13;;;13.80;;
15905;SDS011;8051;50.820;4.884;2023-12-20T05:26:01;19.40;;;12.17;;
15905;SDS011;8051;50.820;4.884;2023-12-20T05:28:31;26.97;;;12.30;;
15905;SDS011;8051;50.820;4.884;2023-12-20T05:30:59;20.97;;;12.83;;
15905;SDS011;8051;50.820;4.884;2023-12-20T05:33:29;18.90;;;12.80;;
15905;SDS011;8051;50.820;4.884;2023-12-20T05:35:56;33.53;;;13.37;;
15905;SDS011;8051;50.820;4.884;2023-12-20T05:38:23;25.97;;;12.90;;
15905;SDS011;8051;50.820;4.884;2023-12-20T05:40:51;22.17;;;13.43;;
15905;SDS011;8051;50.820;4.884;2023-12-20T05:43:18;14.20;;;11.90;;
15905;SDS011;8051;50.820;4.884;2023-12-20T05:45:46;26.83;;;14.20;;
15905;SDS011;8051;50.820;4.884;2023-12-20T05:48:13;18.73;;;14.33;;
15905;SDS011;8051;50.820;4.884;2023-12-20T05:50:42;32.43;;;13.73;;
15905;SDS011;8051;50.820;4.884;2023-12-20T05:53:10;25.67;;;13.77;;
15905;SDS011;8051;50.820;4.884;2023-12-20T05:55:37;24.43;;;13.47;;
15905;SDS011;8051;50.820;4.884;2023-12-20T05:58:05;26.10;;;12.63;;
15905;SDS011;8051;50.820;4.884;2023-12-20T06:00:32;20.40;;;13.20;;
15905;SDS011;8051;50.820;4.884;2023-12-20T06:03:00;26.23;;;13.23;;
15905;SDS011;8051;50.820;4.884;2023-12-20T06:05:27;28.70;;;13.90;;
15905;SDS011;8051;50.820;4.884;2023-12-20T06:07:56;21.17;;;12.20;;
15905;SDS011;8051;50.820;4.884;2023-12-20T06:10:26;20.70;;;13.00;;
15905;SDS011;8051;50.820;4.884;2023-12-20T06:12:54;27.10;;;13.57;;
15905;SDS011;8051;50.820;4.884;2023-12-20T06:15:23;31.03;;;12.57;;
15905;SDS011;8051;50.820;4.884;2023-12-20T06:17:51;22.00;;;11.73;;
15905;SDS011;8051;50.820;4.884;2023-12-20T06:20:18;22.60;;;11.87;;
15905;SDS011;8051;50.820;4.884;2023-12-20T06:22:46;20.90;;;11.93;;
15905;SDS011;8051;50.820;4.884;2023-12-20T06:25:15;28.20;;;13.10;;
15905;SDS011;8051;50.820;4.884;2023-12-20T06:27:43;22.57;;;14.80;;
15905;SDS011;8051;50.820;4.884;2023-12-20T06:30:10;21.90;;;13.10;;
15905;SDS011;8051;50.820;4.884;2023-12-20T06:32:38;25.07;;;14.20;;
15905;SDS011;8051;50.820;4.884;2023-12-20T06:35:08;22.47;;;14.50;;
15905;SDS011;8051;50.820;4.884;2023-12-20T06:37:35;36.50;;;14.63;;
15905;SDS011;8051;50.820;4.884;2023-12-20T06:40:03;31.87;;;14.77;;
15905;SDS011;8051;50.820;4.884;2023-12-20T06:42:33;18.30;;;14.30;;
15905;SDS011;8051;50.820;4.884;2023-12-20T06:45:01;19.77;;;14.13;;
15905;SDS011;8051;50.820;4.884;2023-12-20T06:47:28;27.77;;;15.17;;
15905;SDS011;8051;50.820;4.884;2023-12-20T06:49:56;23.47;;;16.10;;
15905;SDS011;8051;50.820;4.884;2023-12-20T06:52:23;25.27;;;16.03;;
15905;SDS011;8051;50.820;4.884;2023-12-20T06:54:51;24.20;;;17.33;;
15905;SDS011;8051;50.820;4.884;2023-12-20T06:57:18;18.60;;;14.87;;
15905;SDS011;8051;50.820;4.884;2023-12-20T06:59:47;26.47;;;14.93;;
15905;SDS011;8051;50.820;4.884;2023-12-20T07:02:15;15.67;;;13.13;;
15905;SDS011;8051;50.820;4.884;2023-12-20T07:04:42;19.97;;;15.17;;
15905;SDS011;8051;50.820;4.884;2023-12-20T07:07:10;19.70;;;14.70;;
15905;SDS011;8051;50.820;4.884;2023-12-20T07:09:37;27.17;;;14.63;;
15905;SDS011;8051;50.820;4.884;2023-12-20T07:12:07;20.83;;;14.57;;
15905;SDS011;8051;50.820;4.884;2023-12-20T07:14:35;23.90;;;14.53;;
15905;SDS011;8051;50.820;4.884;2023-12-20T07:17:04;23.80;;;14.60;;
15905;SDS011;8051;50.820;4.884;2023-12-20T07:19:36;24.33;;;15.07;;
15905;SDS011;8051;50.820;4.884;2023-12-20T07:22:04;20.03;;;14.17;;
15905;SDS011;8051;50.820;4.884;2023-12-20T07:24:32;18.00;;;14.20;;
15905;SDS011;8051;50.820;4.884;2023-12-20T07:26:59;18.80;;;15.90;;
15905;SDS011;8051;50.820;4.884;2023-12-20T07:29:27;16.67;;;14.20;;
15905;SDS011;8051;50.820;4.884;2023-12-20T07:31:54;22.13;;;14.43;;
15905;SDS011;8051;50.820;4.884;2023-12-20T07:34:23;25.13;;;15.33;;
15905;SDS011;8051;50.820;4.884;2023-12-20T07:36:51;19.80;;;14.07;;
15905;SDS011;8051;50.820;4.884;2023-12-20T07:39:18;22.70;;;13.87;;
15905;SDS011;8051;50.820;4.884;2023-12-20T07:41:45;26.17;;;14.17;;
15905;SDS011;8051;50.820;4.884;2023-12-20T07:44:13;22.30;;;13.30;;
15905;SDS011;8051;50.820;4.884;2023-12-20T07:46:40;20.97;;;13.83;;
15905;SDS011;8051;50.820;4.884;2023-12-20T07:49:08;19.27;;;14.57;;
15905;SDS011;8051;50.820;4.884;2023-12-20T07:51:37;25.73;;;15.30;;
15905;SDS011;8051;50.820;4.884;2023-12-20T07:54:05;19.37;;;13.00;;
15905;SDS011;8051;50.820;4.884;2023-12-20T07:56:33;20.00;;;13.30;;
15905;SDS011;8051;50.820;4.884;2023-12-20T07:59:00;15.40;;;12.20;;
15905;SDS011;8051;50.820;4.884;2023-12-20T08:01:27;20.27;;;13.33;;
15905;SDS011;8051;50.820;4.884;2023-12-20T08:03:55;17.97;;;14.23;;
15905;SDS011;8051;50.820;4.884;2023-12-20T08:06:22;16.50;;;14.80;;
15905;SDS011;8051;50.820;4.884;2023-12-20T08:08:51;19.03;;;14.00;;
15905;SDS011;8051;50.820;4.884;2023-12-20T08:11:19;31.43;;;14.20;;
15905;SDS011;8051;50.820;4.884;2023-12-20T08:13:46;17.37;;;14.00;;
15905;SDS011;8051;50.820;4.884;2023-12-20T08:16:13;15.80;;;13.07;;
15905;SDS011;8051;50.820;4.884;2023-12-20T08:18:42;17.43;;;13.57;;
15905;SDS011;8051;50.820;4.884;2023-12-20T08:21:10;14.03;;;12.17;;
15905;SDS011;8051;50.820;4.884;2023-12-20T08:23:37;16.97;;;14.93;;
15905;SDS011;8051;50.820;4.884;2023-12-20T08:26:06;16.70;;;13.10;;
15905;SDS011;8051;50.820;4.884;2023-12-20T08:28:34;17.33;;;14.10;;
15905;SDS011;8051;50.820;4.884;2023-12-20T08:31:03;26.93;;;15.20;;
15905;SDS011;8051;50.820;4.884;2023-12-20T08:33:30;18.37;;;14.53;;
15905;SDS011;8051;50.820;4.884;2023-12-20T08:35:58;24.87;;;15.87;;
15905;SDS011;8051;50.820;4.884;2023-12-20T08:38:25;21.03;;;14.60;;
15905;SDS011;8051;50.820;4.884;2023-12-20T08:40:53;24.30;;;14.97;;
15905;SDS011;8051;50.820;4.884;2023-12-20T08:43:22;20.70;;;15.67;;
15905;SDS011;8051;50.820;4.884;2023-12-20T08:45:49;18.37;;;14.50;;
15905;SDS011;8051;50.820;4.884;2023-12-20T08:48:16;21.27;;;15.30;;
15905;SDS011;8051;50.820;4.884;2023-12-20T08:50:44;16.43;;;14.80;;
15905;SDS011;8051;50.820;4.884;2023-12-20T08:53:14;17.03;;;14.87;;
15905;SDS011;8051;50.820;4.884;2023-12-20T08:55:42;38.07;;;15.43;;
15905;SDS011;8051;50.820;4.884;2023-12-20T08:58:10;18.47;;;15.83;;
15905;SDS011;8051;50.820;4.884;2023-12-20T09:00:39;22.50;;;15.30;;
15905;SDS011;8051;50.820;4.884;2023-12-20T09:03:07;17.93;;;16.03;;
15905;SDS011;8051;50.820;4.884;2023-12-20T09:05:34;18.23;;;16.47;;
15905;SDS011;8051;50.820;4.884;2023-12-20T09:08:01;18.37;;;16.50;;
15905;SDS011;8051;50.820;4.884;2023-12-20T09:10:28;31.03;;;18.43;;
15905;SDS011;8051;50.820;4.884;2023-12-20T09:12:56;22.77;;;18.93;;
15905;SDS011;8051;50.820;4.884;2023-12-20T09:15:23;20.83;;;18.70;;
15905;SDS011;8051;50.820;4.884;2023-12-20T09:17:53;21.83;;;17.97;;
15905;SDS011;8051;50.820;4.884;2023-12-20T09:20:22;22.20;;;20.23;;
15905;SDS011;8051;50.820;4.884;2023-12-20T09:22:49;22.30;;;20.13;;
15905;SDS011;8051;50.820;4.884;2023-12-20T09:25:17;25.10;;;20.43;;
15905;SDS011;8051;50.820;4.884;2023-12-20T09:27:44;28.23;;;20.60;;
15905;SDS011;8051;50.820;4.884;2023-12-20T09:30:12;22.37;;;20.30;;
15905;SDS011;8051;50.820;4.884;2023-12-20T09:32:39;22.43;;;20.47;;
15905;SDS011;8051;50.820;4.884;2023-12-20T09:35:09;27.30;;;21.40;;
15905;SDS011;8051;50.820;4.884;2023-12-20T09:37:36;25.13;;;21.73;;
15905;SDS011;8051;50.820;4.884;2023-12-20T09:40:06;26.50;;;20.80;;
15905;SDS011;8051;50.820;4.884;2023-12-20T09:42:38;27.33;;;21.73;;
15905;SDS011;8051;50.820;4.884;2023-12-20T09:45:11;31.57;;;20.60;;
15905;SDS011;8051;50.820;4.884;2023-12-20T09:47:41;22.43;;;20.33;;
15905;SDS011;8051;50.820;4.884;2023-12-20T09:50:11;23.67;;;21.20;;
15905;SDS011;8051;50.820;4.884;2023-12-20T09:52:39;23.80;;;21.60;;
15905;SDS011;8051;50.820;4.884;2023-12-20T09:55:08;24.47;;;21.97;;
15905;SDS011;8051;50.820;4.884;2023-12-20T09:57:35;25.07;;;22.37;;
15905;SDS011;8051;50.820;4.884;2023-12-20T10:00:04;24.50;;;21.97;;
15905;SDS011;8051;50.820;4.884;2023-12-20T10:02:32;24.80;;;22.33;;
15905;SDS011;8051;50.820;4.884;2023-12-20T10:05:06;26.53;;;23.57;;
15905;SDS011;8051;50.820;4.884;2023-12-20T10:07:41;24.53;;;22.40;;
15905;SDS011;8051;50.820;4.884;2023-12-20T10:10:08;28.67;;;23.50;;
15905;SDS011;8051;50.820;4.884;2023-12-20T10:12:38;27.53;;;23.03;;
15905;SDS011;8051;50.820;4.884;2023-12-20T10:15:06;27.97;;;22.80;;
15905;SDS011;8051;50.820;4.884;2023-12-20T10:17:35;26.93;;;24.10;;
15905;SDS011;8051;50.820;4.884;2023-12-20T10:20:04;28.80;;;23.10;;
15905;SDS011;8051;50.820;4.884;2023-12-20T10:22:35;29.00;;;23.43;;
15905;SDS011;8051;50.820;4.884;2023-12-20T10:25:05;26.73;;;23.50;;
15905;SDS011;8051;50.820;4.884;2023-12-20T10:27:34;27.83;;;23.57;;
15905;SDS011;8051;50.820;4.884;2023-12-20T10:30:01;26.53;;;23.33;;
15905;SDS011;8051;50.820;4.884;2023-12-20T10:32:29;25.60;;;23.30;;
15905;SDS011;8051;50.820;4.884;2023-12-20T10:34:57;29.70;;;24.93;;
15905;SDS011;8051;50.820;4.884;2023-12-20T10:37:25;26.13;;;23.57;;
15905;SDS011;8051;50.820;4.884;2023-12-20T10:39:53;27.40;;;24.27;;
15905;SDS011;8051;50.820;4.884;2023-12-20T10:42:24;27.07;;;24.17;;
15905;SDS011;8051;50.820;4.884;2023-12-20T10:44:53;27.70;;;24.10;;
15905;SDS011;8051;50.820;4.884;2023-12-20T10:47:20;30.97;;;25.10;;
15905;SDS011;8051;50.820;4.884;2023-12-20T10:49:49;27.50;;;24.70;;
15905;SDS011;8051;50.820;4.884;2023-12-20T10:52:18;28.57;;;25.53;;
15905;SDS011;8051;50.820;4.884;2023-12-20T10:54:49;28.57;;;25.57;;
15905;SDS011;8051;50.820;4.884;2023-12-20T10:57:17;30.87;;;24.20;;
15905;SDS011;8051;50.820;4.884;2023-12-20T10:59:46;27.33;;;24.57;;
15905;SDS011;8051;50.820;4.884;2023-12-20T11:02:15;26.57;;;24.17;;
15905;SDS011;8051;50.820;4.884;2023-12-20T11:04:44;28.87;;;24.10;;
15905;SDS011;8051;50.820;4.884;2023-12-20T11:07:19;28.47;;;25.60;;
15905;SDS011;8051;50.820;4.884;2023-12-20T11:09:56;35.30;;;26.90;;
15905;SDS011;8051;50.820;4.884;2023-12-20T11:12:29;27.63;;;24.77;;
15905;SDS011;8051;50.820;4.884;2023-12-20T11:15:05;27.73;;;24.80;;
15905;SDS011;8051;50.820;4.884;2023-12-20T11:17:34;27.43;;;24.63;;
15905;SDS011;8051;50.820;4.884;2023-12-20T11:20:06;29.83;;;25.17;;
15905;SDS011;8051;50.820;4.884;2023-12-20T11:22:37;26.63;;;23.87;;
15905;SDS011;8051;50.820;4.884;2023-12-20T11:25:07;28.77;;;24.93;;
15905;SDS011;8051;50.820;4.884;2023-12-20T11:27:36;30.93;;;26.00;;
15905;SDS011;8051;50.820;4.884;2023-12-20T11:30:09;29.73;;;25.50;;
15905;SDS011;8051;50.820;4.884;2023-12-20T11:32:37;28.57;;;25.53;;
15905;SDS011;8051;50.820;4.884;2023-12-20T11:35:19;29.27;;;26.27;;
15905;SDS011;8051;50.820;4.884;2023-12-20T11:37:48;27.90;;;24.97;;
15905;SDS011;8051;50.820;4.884;2023-12-20T11:40:17;27.87;;;25.07;;
15905;SDS011;8051;50.820;4.884;2023-12-20T11:42:48;28.30;;;24.20;;
15905;SDS011;8051;50.820;4.884;2023-12-20T11:45:19;27.73;;;24.97;;
15905;SDS011;8051;50.820;4.884;2023-12-20T11:47:48;27.60;;;24.60;;
15905;SDS011;8051;50.820;4.884;2023-12-20T11:50:17;29.70;;;25.33;;
15905;SDS011;8051;50.820;4.884;2023-12-20T11:52:44;27.00;;;24.43;;
15905;SDS011;8051;50.820;4.884;2023-12-20T11:55:12;28.50;;;24.47;;
15905;SDS011;8051;50.820;4.884;2023-12-20T11:57:40;32.37;;;24.00;;
15905;SDS011;8051;50.820;4.884;2023-12-20T12:00:08;30.07;;;24.37;;
15905;SDS011;8051;50.820;4.884;2023-12-20T12:02:38;26.17;;;23.43;;
15905;SDS011;8051;50.820;4.884;2023-12-20T12:05:05;33.63;;;24.37;;
15905;SDS011;8051;50.820;4.884;2023-12-20T12:07:34;31.17;;;23.80;;
15905;SDS011;8051;50.820;4.884;2023-12-20T12:10:01;26.73;;;23.43;;
15905;SDS011;8051;50.820;4.884;2023-12-20T12:12:29;25.90;;;23.37;;
15905;SDS011;8051;50.820;4.884;2023-12-20T12:14:58;25.73;;;22.97;;
15905;SDS011;8051;50.820;4.884;2023-12-20T12:17:25;26.63;;;22.93;;
15905;SDS011;8051;50.820;4.884;2023-12-20T12:20:02;26.70;;;23.43;;
15905;SDS011;8051;50.820;4.884;2023-12-20T12:22:31;32.23;;;23.83;;
15905;SDS011;8051;50.820;4.884;2023-12-20T12:24:59;25.27;;;22.13;;
15905;SDS011;8051;50.820;4.884;2023-12-20T12:27:35;26.30;;;21.67;;
15905;SDS011;8051;50.820;4.884;2023-12-20T12:30:04;25.60;;;22.90;;
15905;SDS011;8051;50.820;4.884;2023-12-20T12:32:33;31.40;;;23.20;;
15905;SDS011;8051;50.820;4.884;2023-12-20T12:35:04;25.47;;;23.07;;
15905;SDS011;8051;50.820;4.884;2023-12-20T12:37:33;31.63;;;23.33;;
15905;SDS011;8051;50.820;4.884;2023-12-20T12:40:03;27.97;;;22.97;;
15905;SDS011;8051;50.820;4.884;2023-12-20T12:42:31;34.13;;;23.93;;
15905;SDS011;8051;50.820;4.884;2023-12-20T12:44:59;24.20;;;21.70;;
15905;SDS011;8051;50.820;4.884;2023-12-20T12:47:26;28.37;;;24.07;;
15905;SDS011;8051;50.820;4.884;2023-12-20T12:49:54;25.07;;;22.67;;
15905;SDS011;8051;50.820;4.884;2023-12-20T12:52:23;24.40;;;21.87;;
15905;SDS011;8051;50.820;4.884;2023-12-20T12:54:51;30.33;;;22.63;;
15905;SDS011;8051;50.820;4.884;2023-12-20T12:57:19;29.97;;;22.13;;
15905;SDS011;8051;50.820;4.884;2023-12-20T12:59:47;26.63;;;23.93;;
15905;SDS011;8051;50.820;4.884;2023-12-20T13:02:15;26.97;;;24.30;;
15905;SDS011;8051;50.820;4.884;2023-12-20T13:04:42;26.37;;;23.07;;
15905;SDS011;8051;50.820;4.884;2023-12-20T13:07:10;26.87;;;23.23;;
15905;SDS011;8051;50.820;4.884;2023-12-20T13:09:40;27.80;;;23.13;;
15905;SDS011;8051;50.820;4.884;2023-12-20T13:12:07;25.37;;;22.90;;
15905;SDS011;8051;50.820;4.884;2023-12-20T13:14:35;27.70;;;22.20;;
15905;SDS011;8051;50.820;4.884;2023-12-20T13:17:03;24.37;;;21.87;;
15905;SDS011;8051;50.820;4.884;2023-12-20T13:19:31;27.70;;;22.83;;
15905;SDS011;8051;50.820;4.884;2023-12-20T13:21:58;38.90;;;22.87;;
15905;SDS011;8051;50.820;4.884;2023-12-20T13:24:26;25.87;;;22.57;;
15905;SDS011;8051;50.820;4.884;2023-12-20T13:26:56;24.47;;;21.77;;
15905;SDS011;8051;50.820;4.884;2023-12-20T13:29:23;25.00;;;22.07;;
15905;SDS011;8051;50.820;4.884;2023-12-20T13:31:52;23.37;;;21.37;;
15905;SDS011;8051;50.820;4.884;2023-12-20T13:34:20;26.47;;;22.37;;
15905;SDS011;8051;50.820;4.884;2023-12-20T13:36:47;25.37;;;22.73;;
15905;SDS011;8051;50.820;4.884;2023-12-20T13:39:16;28.30;;;21.20;;
15905;SDS011;8051;50.820;4.884;2023-12-20T13:41:43;28.27;;;20.23;;
15905;SDS011;8051;50.820;4.884;2023-12-20T13:44:12;22.43;;;20.07;;
15905;SDS011;8051;50.820;4.884;2023-12-20T13:46:40;23.13;;;19.47;;
15905;SDS011;8051;50.820;4.884;2023-12-20T13:49:07;23.10;;;19.73;;
15905;SDS011;8051;50.820;4.884;2023-12-20T13:51:35;21.90;;;19.60;;
15905;SDS011;8051;50.820;4.884;2023-12-20T13:54:03;21.83;;;19.50;;
15905;SDS011;8051;50.820;4.884;2023-12-20T13:56:31;24.50;;;18.87;;
15905;SDS011;8051;50.820;4.884;2023-12-20T13:58:59;20.27;;;18.30;;
15905;SDS011;8051;50.820;4.884;2023-12-20T14:01:28;22.43;;;19.23;;
15905;SDS011;8051;50.820;4.884;2023-12-20T14:03:55;25.87;;;17.67;;
15905;SDS011;8051;50.820;4.884;2023-12-20T14:06:23;24.20;;;18.20;;
15905;SDS011;8051;50.820;4.884;2023-12-20T14:08:50;20.07;;;18.27;;
15905;SDS011;8051;50.820;4.884;2023-12-20T14:11:18;20.77;;;18.67;;
15905;SDS011;8051;50.820;4.884;2023-12-20T14:13:45;25.70;;;18.63;;
15905;SDS011;8051;50.820;4.884;2023-12-20T14:16:13;20.23;;;17.90;;
15905;SDS011;8051;50.820;4.884;2023-12-20T14:18:43;20.20;;;17.57;;
15905;SDS011;8051;50.820;4.884;2023-12-20T14:21:10;21.73;;;18.77;;
15905;SDS011;8051;50.820;4.884;2023-12-20T14:23:38;24.13;;;18.77;;
15905;SDS011;8051;50.820;4.884;2023-12-20T14:26:05;20.93;;;18.97;;
15905;SDS011;8051;50.820;4.884;2023-12-20T14:28:36;29.33;;;20.57;;
15905;SDS011;8051;50.820;4.884;2023-12-20T14:31:04;27.23;;;19.97;;
15905;SDS011;8051;50.820;4.884;2023-12-20T14:33:32;28.20;;;20.80;;
15905;SDS011;8051;50.820;4.884;2023-12-20T14:36:01;21.87;;;19.60;;
15905;SDS011;8051;50.820;4.884;2023-12-20T14:38:30;25.67;;;20.60;;